Weather observations for the past three days for
Hays, Hays Regional Airport
Imperial (Metric)
Date Time (cdt) Wind (mph) Vis. (mi.) Weather Sky Cond. Temperature (ºF) Relative Humidity Wind Chill (°F) Heat Index (°F) Pressure Precipitation (in)
Air Dwpt 6 hour altimeter (in) sea level (mb) 1 hr 3 hr 6 hr
Max. Min.
31 00:56 E 10 10.00 Partly Cloudy FEW049 SCT090 SCT120 81 66.9 96.1 79 62% 83 29.91 1010.7
30 23:56 E 7 10.00 Mostly Cloudy BKN110 81 66.9 62% 83 29.92 1011.0
30 22:56 N 6 10.00 Mostly Cloudy BKN110 82 66 58% 84 29.89 1010.0
30 21:56 NE 6 10.00 Fair CLR 82 66.9 60% 85 29.87 1009.5
30 20:56 N 7 10.00 Fair CLR 82.9 68 61% 86 29.85 1008.9
30 19:56 N 10 10.00 Fair CLR 90 66.9 47% 93 29.83 1008.0
30 18:56 N 9 10.00 Fair CLR 96.1 66.9 98.1 88 39% 100 29.82 1007.5
30 17:56 N 6 10.00 Fair CLR 98.1 66 35% 102 29.82 1007.4
30 16:56 Calm 10.00 Fair CLR 97 64 34% 99 29.82 1007.4
30 15:56 NW 7 10.00 Fair CLR 95 66.9 40% 99 29.84 1008.1
30 14:56 NW 7 10.00 Fair CLR 93 66.9 42% 97 29.86 1008.9
30 13:56 Vrbl 5 10.00 Fair CLR 91 66.9 45% 94 29.88 1009.3
30 12:56 Vrbl 5 10.00 Fair CLR 88 66 89.1 75 48% 90 29.88 1009.5
30 11:56 W 13 10.00 Fair CLR 88 63 43% 89 29.9 1010.1
30 10:56 SW 10 10.00 Fair CLR 86 60.1 42% 86 29.88 1009.7
30 09:56 SW 16 10.00 Fair CLR 82 57 43% 82 29.88 1009.6
30 08:56 SW 13 G 17 10.00 Fair CLR 79 57.9 49% 80 29.87 1009.3
30 07:56 S 13 10.00 Fair CLR 75.9 57 52% 78 29.86 1008.9
30 06:56 S 10 10.00 Fair CLR 75.9 55.9 82.9 75.9 50% 78 29.85 1008.4
30 05:56 S 16 10.00 Fair CLR 78.1 55.9 47% 79 29.84 1007.9
30 04:56 S 14 10.00 Fair CLR 79 55.9 45% 80 29.84 1007.9
30 03:56 S 14 10.00 Fair CLR 82 55.9 41% 82 29.86 1008.6
30 02:56 S 15 10.00 Fair CLR 82 57 43% 82 29.85 1008.2
30 01:56 S 12 10.00 Fair CLR 80.1 57.9 47% 81 29.86 1008.7
30 00:56 S 13 10.00 Fair CLR 82.9 57.9 98.1 82 43% 83 29.87 1008.8
29 23:56 S 16 10.00 Fair CLR 84 59 43% 84 29.85 1008.3
29 22:56 S 13 10.00 Fair CLR 82.9 62.1 49% 84 29.86 1008.7
29 21:56 S 10 10.00 Fair CLR 84.9 62.1 46% 85 29.85 1008.7
29 20:56 S 13 10.00 Fair CLR 89.1 62.1 41% 89 29.82 1007.7
29 19:56 S 14 10.00 Fair CLR 93 62.1 36% 94 29.8 1007.0
29 18:56 S 17 G 24 10.00 Fair CLR 98.1 62.1 102.9 97 31% 99 29.8 1006.8
29 17:56 S 22 G 29 10.00 Fair and Breezy CLR 102 60.1 25% 103 29.8 1006.7
29 16:56 SW 23 G 31 10.00 Fair and Breezy CLR 102 62.1 27% 104 29.81 1007.2
29 15:56 S 23 G 29 10.00 Fair and Breezy CLR 102 61 26% 103 29.83 1007.7
29 14:56 S 24 G 29 10.00 Fair and Breezy CLR 100.9 63 29% 103 29.85 1008.5
29 13:56 S 20 G 28 10.00 Fair CLR 98.1 62.1 31% 99 29.88 1009.6
29 12:56 SW 23 G 28 10.00 Fair and Breezy CLR 97 62.1 97 69.1 32% 98 29.9 1010.1
29 11:56 SW 18 G 26 10.00 Fair CLR 93.9 62.1 35% 95 29.92 1010.9
29 10:56 S 22 G 28 10.00 Fair and Breezy CLR 90 61 38% 90 29.93 1011.2
29 09:56 S 20 G 28 9.00 Fair CLR 82.9 59 44% 83 29.94 1011.9
29 08:56 S 15 10.00 Fair CLR 78.1 57 48% 79 29.96 1012.7
29 07:56 S 6 10.00 Fair CLR 71.1 55.9 59% 29.97 1013.2
29 06:56 S 8 10.00 Fair CLR 71.1 55 77 71.1 57% 29.98 1013.2
29 05:56 S 7 10.00 Fair CLR 72 55 55% 29.99 1013.4
29 04:56 S 10 10.00 Fair CLR 73.9 55 52% 30 1013.7
29 03:56 S 10 10.00 Fair CLR 73.9 55.9 54% 30.01 1014.0
29 02:56 S 12 10.00 Fair CLR 75.9 55.9 50% 78 30.01 1014.1
29 01:56 S 14 10.00 Fair CLR 75.9 57 52% 78 30.01 1014.2
29 00:56 S 13 10.00 Fair CLR 77 57.9 91 77 52% 79 30.01 1014.2
28 23:56 S 15 10.00 Fair CLR 78.1 57.9 50% 79 30 1013.9
28 22:56 S 13 10.00 Fair CLR 79 61 54% 80 30 1014.0
28 21:56 SE 10 10.00 Fair CLR 78.1 64.9 64% 80 30 1014.1
28 20:56 SE 8 10.00 Fair CLR 80.1 64.9 60% 82 29.98 1013.8
28 19:56 SE 9 10.00 Fair CLR 84.9 64 50% 86 29.97 1013.2
28 18:56 SE 12 10.00 Fair CLR 91 64 95 88 41% 93 29.98 1013.1
28 17:56 S 17 10.00 Fair CLR 93 63 37% 94 29.99 1013.4
28 16:56 S 14 G 21 10.00 Fair CLR 93.9 63 36% 95 30 1014.0
28 15:56 S 17 G 22 10.00 Fair CLR 93.9 63 36% 95 30.02 1014.7
28 14:56 S 12 10.00 Fair CLR 91.9 64 40% 94 30.06 1016.0
28 13:56 S 14 10.00 Fair CLR 89.1 66 47% 92 30.07 1016.6
28 12:56 S 15 10.00 Fair CLR 88 64.9 88 69.1 46% 90 30.1 1017.4
28 11:56 S 12 10.00 Fair CLR 84 64.9 53% 86 30.13 1018.3
28 10:56 S 13 10.00 Fair CLR 81 63 54% 82 30.14 1018.8
28 09:56 S 10 10.00 Fair CLR 75 63 66% 77 30.15 1019.2
28 08:56 SW 12 10.00 Fair CLR 71.1 63 76% 30.15 1019.3
28 07:56 SW 9 10.00 Fair CLR 69.1 62.1 78% 30.14 1018.8
28 06:56 S 12 G 22 10.00 Fair CLR 73 61 73 64 66% 30.12 1017.9
28 05:56 W 17 10.00 Fair CLR 68 62.1 81% 30.06 1016.1
28 04:56 SW 13 10.00 Mostly Cloudy SCT095 BKN120 66 62.1 87% 30.08 1016.7
28 03:56 SE 10 10.00 Rain OVC100 64.9 64 97% 30.12 1018.2
28 02:56 E 7 6.00 Rain Fog/Mist OVC090 64.9 64.9 100% 30.21 1021.1
28 01:56 N 21 G 38 3.00 Thunderstorm Heavy Rain Fog/Mist and Breezy SCT015 BKN028 OVC065 66 64.9 96% 30.26 1023.0 0.01
Date Time (cdt) Wind (mph) Vis. (mi.) Weather Sky Cond. Air Dwpt Max. Min. Relative Humidity Wind Chill (°F) Heat Index (°F) altimeter (in) sea level (mb) 1 hr 3 hr 6 hr
6 hour
Temperature (ºF) Pressure Precipitation (in)